Flight Track Log - Related Links

Times and Time Zones

All times are in EDT time to prevent confusion due to time zone crossing. See the CCA4324 flight status page for this flight to view local times or setup timezone preferences in your user account.

Time Position Orientation Groundspeed Altitude Reporting Facility
EDT Latitude Longitude Course Direction KTS MPH feet Rate Location/Type
Thu 11:31:00 AM 25.4186 109.8266 316° Northwest  Level Estimated
Thu 11:32:00 AM 25.4854 109.7556 316° Northwest  Level Estimated
Thu 11:33:00 AM 25.5521 109.6845 316° Northwest  Level Estimated
Thu 11:34:00 AM 25.6188 109.6134 316° Northwest  Level Estimated
Thu 11:35:00 AM 25.6854 109.5421 316° Northwest  Level Estimated
Thu 11:36:00 AM 25.7521 109.4708 316° Northwest  Level Estimated
Thu 11:37:00 AM 25.8186 109.3994 316° Northwest  Level Estimated
Thu 11:38:00 AM 25.8852 109.3279 316° Northwest  Level Estimated
Thu 11:39:00 AM 25.9517 109.2563 316° Northwest  Level Estimated
Thu 11:40:00 AM 26.0182 109.1847 316° Northwest  Level Estimated
Thu 11:41:00 AM 26.0847 109.1129 316° Northwest  Level Estimated
Thu 11:42:00 AM 26.1511 109.0411 316° Northwest  Level Estimated
Thu 11:43:00 AM 26.2174 108.9692 316° Northwest  Level Estimated
Thu 11:44:00 AM 26.2838 108.8973 316° Northwest  Level Estimated
Thu 11:45:00 AM 26.3501 108.8252 316° Northwest  Level Estimated
Thu 11:46:00 AM 26.4164 108.7531 316° Northwest  Level Estimated
Thu 11:47:00 AM 26.4826 108.6808 316° Northwest  Level Estimated
Thu 11:48:00 AM 26.5488 108.6086 316° Northwest  Level Estimated
Thu 11:49:00 AM 26.6150 108.5362 316° Northwest  Level Estimated
Thu 11:50:00 AM 26.6811 108.4637 316° Northwest  Level Estimated
Thu 11:51:00 AM 26.7472 108.3911 316° Northwest  Level Estimated
Thu 11:52:00 AM 26.8132 108.3185 316° Northwest  Level Estimated
Thu 11:53:00 AM 26.8792 108.2458 316° Northwest  Level Estimated
Thu 11:54:00 AM 26.9452 108.1730 315° West  Level Estimated
Thu 11:55:00 AM 27.0112 108.1001 315° West  Level Estimated
Thu 11:56:00 AM 27.0770 108.0271 315° West  Level Estimated
Thu 11:57:00 AM 27.1429 107.9540 315° West  Level Estimated
Thu 11:58:00 AM 27.2087 107.8809 315° West  Level Estimated
Thu 11:59:00 AM 27.2745 107.8076 315° West  Level Estimated
Thu 12:00:00 PM 27.3403 107.7343 315° West  Level Estimated
Thu 12:01:00 PM 27.4060 107.6609 315° West  Level Estimated
Thu 12:02:00 PM 27.4717 107.5874 315° West  Level Estimated
Thu 12:03:00 PM 27.5373 107.5138 315° West  Level Estimated
Thu 12:04:00 PM 27.6029 107.4401 315° West  Level Estimated
Thu 12:05:00 PM 27.6684 107.3663 315° West  Level Estimated
Thu 12:06:00 PM 27.7340 107.2925 315° West  Level Estimated
Thu 12:07:00 PM 27.7994 107.2186 315° West  Level Estimated
Thu 12:08:00 PM 27.8649 107.1445 315° West  Level Estimated
Thu 12:09:00 PM 27.9303 107.0704 315° West  Level Estimated
Thu 12:10:00 PM 27.9956 106.9962 315° West  Level Estimated
Thu 12:11:00 PM 28.0610 106.9219 315° West  Level Estimated
Thu 12:12:00 PM 28.1262 106.8475 315° West  Level Estimated
Thu 12:13:00 PM 28.1915 106.7730 315° West  Level Estimated
Thu 12:14:00 PM 28.2567 106.6984 315° West  Level Estimated
Thu 12:15:00 PM 28.3218 106.6238 315° West  Level Estimated
Thu 12:16:00 PM 28.3870 106.5490 315° West  Level Estimated
Thu 12:17:00 PM 28.4520 106.4742 315° West  Level Estimated
Thu 12:18:00 PM 28.5171 106.3992 315° West  Level Estimated
Thu 12:19:00 PM 28.5821 106.3242 315° West  Level Estimated
Thu 12:20:00 PM 28.6470 106.2491 315° West  Level Estimated
Thu 12:21:00 PM 28.7119 106.1739 315° West  Level Estimated
Thu 12:22:00 PM 28.7768 106.0986 315° West  Level Estimated
Thu 12:23:00 PM 28.8416 106.0232 314° West  Level Estimated
Thu 12:24:00 PM 28.9064 105.9477 314° West  Level Estimated
Thu 12:25:00 PM 28.9712 105.8721 314° West  Level Estimated
Thu 12:26:00 PM 29.0359 105.7964 314° West  Level Estimated
Thu 12:27:00 PM 29.1005 105.7206 314° West  Level Estimated
Thu 12:28:00 PM 29.1651 105.6447 314° West  Level Estimated
Thu 12:29:00 PM 29.2297 105.5688 314° West  Level Estimated
Thu 12:30:00 PM 29.2943 105.4927 314° West  Level Estimated
Thu 12:31:00 PM 29.3587 105.4165 314° West  Level Estimated
Thu 12:32:00 PM 29.4232 105.3403 314° West  Level Estimated
Thu 12:33:00 PM 29.4876 105.2639 314° West  Level Estimated
Thu 12:34:00 PM 29.5519 105.1874 314° West  Level Estimated
Thu 12:35:00 PM 29.6162 105.1109 314° West  Level Estimated
Thu 12:36:00 PM 29.6805 105.0342 314° West  Level Estimated
Thu 12:37:00 PM 29.7447 104.9575 314° West  Level Estimated
Thu 12:38:00 PM 29.8089 104.8807 314° West  Level Estimated
Thu 12:39:00 PM 29.8731 104.8037 314° West  Level Estimated
Thu 12:40:00 PM 29.9372 104.7267 314° West  Level Estimated
Thu 12:41:00 PM 30.0012 104.6495 314° West  Level Estimated
Thu 12:42:00 PM 30.0652 104.5723 314° West  Level Estimated
Thu 12:43:00 PM 30.1292 104.4949 314° West  Level Estimated
Thu 12:44:00 PM 30.1931 104.4175 314° West  Level Estimated
Thu 12:45:00 PM 30.2569 104.3400 314° West  Level Estimated
Thu 12:46:00 PM 30.3208 104.2623 314° West  Level Estimated
Thu 12:47:00 PM 30.3845 104.1845 314° West  Level Estimated
Thu 12:48:00 PM 30.4483 104.1067 314° West  Level Estimated
Thu 12:49:00 PM 30.5119 104.0287 313° West  Level Estimated
Thu 12:50:00 PM 30.5756 103.9507 313° West  Level Estimated
Thu 12:51:00 PM 30.5785 103.9471 313° West  Level Estimated
Thu 12:52:00 PM 30.5785 103.9471 240° Southwest  Level Estimated
Thu 12:53:00 PM 30.5785 103.9471 240° Southwest  Level Estimated
Thu 12:54:00 PM 30.5785 103.9471 240° Southwest  Level Estimated
Thu 12:55:00 PM 30.5785 103.9471 240° Southwest  Level Estimated
Thu 12:56:00 PM 30.5785 103.9471 240° Southwest  Level Estimated

Login

Don't have an account? Register now (free) for customized features, flight alerts, and more!